createdAt,value
2022-08-21T00:00:18.685Z,1.20
2022-08-21T00:03:47.802Z,1.38
2022-08-21T00:06:53.270Z,0.90
2022-08-21T00:09:37.223Z,1.15
2022-08-21T00:12:43.175Z,1.10
2022-08-21T00:15:22.877Z,1.05
2022-08-21T00:18:00.073Z,0.85
2022-08-21T00:21:24.612Z,1.40
2022-08-21T00:24:00.915Z,1.20
2022-08-21T00:27:11.897Z,1.20
2022-08-21T00:30:22.799Z,1.30
2022-08-21T00:33:07.284Z,1.02
2022-08-21T00:35:55.788Z,1.23
2022-08-21T00:38:55.846Z,1.20
2022-08-21T00:42:17.415Z,1.33
2022-08-21T00:44:55.655Z,1.23
2022-08-21T00:48:42.017Z,1.38
2022-08-21T00:51:47.220Z,1.13
2022-08-21T00:55:12.766Z,1.42
2022-08-21T00:57:53.898Z,1.50
2022-08-21T01:01:25.159Z,1.20
2022-08-21T01:04:19.665Z,1.17
2022-08-21T01:06:56.146Z,1.17
2022-08-21T01:09:31.128Z,1.23
2022-08-21T01:12:08.459Z,1.50
2022-08-21T01:14:50.677Z,0.93
2022-08-21T01:17:26.341Z,1.08
2022-08-21T01:20:01.915Z,0.90
2022-08-21T01:22:44.512Z,1.00
2022-08-21T01:25:22.377Z,1.00
2022-08-21T01:28:15.149Z,0.82
2022-08-21T01:31:08.596Z,0.63
2022-08-21T01:34:07.744Z,1.00
2022-08-21T01:36:43.148Z,0.80
2022-08-21T01:39:27.789Z,1.08
2022-08-21T01:42:02.657Z,0.68
2022-08-21T01:44:48.900Z,0.98
2022-08-21T01:47:39.950Z,0.70
2022-08-21T01:50:19.053Z,0.90
2022-08-21T01:52:56.489Z,1.13
2022-08-21T01:55:34.624Z,1.10
2022-08-21T01:58:19.434Z,1.10
2022-08-21T02:00:54.983Z,1.05
2022-08-21T02:03:42.800Z,0.80
2022-08-21T02:06:20.111Z,0.80
2022-08-21T02:09:19.117Z,0.73
2022-08-21T02:16:03.010Z,1.35
2022-08-21T02:18:38.184Z,0.95
2022-08-21T02:21:14.666Z,1.02
2022-08-21T02:24:54.692Z,0.90
2022-08-21T02:27:31.048Z,0.98
2022-08-21T02:30:35.624Z,0.80
2022-08-21T02:33:13.298Z,0.70
2022-08-21T02:36:01.223Z,0.90
2022-08-21T02:39:00.574Z,0.88
2022-08-21T02:41:42.761Z,1.08
2022-08-21T02:44:30.117Z,1.25
2022-08-21T02:47:13.373Z,0.70
2022-08-21T02:49:49.715Z,0.80
2022-08-21T02:52:48.244Z,0.95
2022-08-21T02:56:07.042Z,0.50
2022-08-21T02:58:47.789Z,0.82
2022-08-21T03:02:06.475Z,0.73
2022-08-21T03:04:46.554Z,0.88
2022-08-21T03:07:23.047Z,0.88
2022-08-21T03:10:07.879Z,0.70
2022-08-21T03:12:43.340Z,0.60
2022-08-21T03:15:42.570Z,0.70
2022-08-21T03:18:17.485Z,0.95
2022-08-21T03:21:07.216Z,0.55
2022-08-21T03:24:32.588Z,0.60
2022-08-21T03:27:15.422Z,0.57
2022-08-21T03:30:55.186Z,1.15
2022-08-21T03:33:30.025Z,0.85
2022-08-21T03:36:09.317Z,0.40
2022-08-21T03:38:44.003Z,0.80
2022-08-21T03:41:20.548Z,0.50
2022-08-21T03:44:06.825Z,0.93
2022-08-21T03:47:07.102Z,0.73
2022-08-21T03:49:49.051Z,0.70
2022-08-21T03:52:23.694Z,0.70
2022-08-21T03:55:18.950Z,1.00
2022-08-21T03:57:55.479Z,0.75
2022-08-21T04:01:08.464Z,0.90
2022-08-21T04:04:01.947Z,0.82
2022-08-21T04:06:37.955Z,0.82
2022-08-21T04:10:26.854Z,0.63
2022-08-21T04:13:10.876Z,0.80
2022-08-21T04:15:54.745Z,1.17
2022-08-21T04:18:30.638Z,1.20
2022-08-21T04:21:08.160Z,1.10
2022-08-21T04:23:48.650Z,0.93
2022-08-21T04:26:37.208Z,1.17
2022-08-21T04:29:35.129Z,0.98
2022-08-21T04:32:46.320Z,0.85
2022-08-21T04:36:08.170Z,0.82
2022-08-21T04:38:44.633Z,0.77
2022-08-21T04:41:20.440Z,0.85
2022-08-21T04:44:03.293Z,0.82
2022-08-21T04:46:52.435Z,1.05
2022-08-21T04:49:37.688Z,1.00
2022-08-21T04:52:24.419Z,0.80
2022-08-21T04:54:59.584Z,0.63
2022-08-21T04:57:48.663Z,0.70
2022-08-21T05:00:27.468Z,0.50
2022-08-21T05:03:06.247Z,0.85
2022-08-21T05:05:42.131Z,0.65
2022-08-21T05:08:36.866Z,0.77
2022-08-21T05:11:14.190Z,0.70
2022-08-21T05:13:49.726Z,0.90
2022-08-21T05:16:49.540Z,1.05
2022-08-21T05:19:33.129Z,0.98
2022-08-21T05:22:26.068Z,0.63
2022-08-21T05:25:00.948Z,0.90
2022-08-21T05:27:36.962Z,0.88
2022-08-21T05:30:14.894Z,1.10
2022-08-21T05:33:10.165Z,1.17
2022-08-21T05:35:57.912Z,0.70
2022-08-21T05:38:32.327Z,0.85
2022-08-21T05:41:13.949Z,0.80
2022-08-21T05:43:49.909Z,0.68
2022-08-21T05:46:40.455Z,0.93
2022-08-21T05:52:03.909Z,0.98
2022-08-21T05:54:40.363Z,0.88
2022-08-21T05:57:37.403Z,0.80
2022-08-21T06:00:15.016Z,0.88
2022-08-21T06:03:01.582Z,1.13
2022-08-21T06:05:37.628Z,0.80
2022-08-21T06:08:51.002Z,0.70
2022-08-21T06:11:33.035Z,0.90
2022-08-21T06:14:30.775Z,1.10
2022-08-21T06:17:16.886Z,0.80
2022-08-21T06:21:04.515Z,1.20
2022-08-21T06:24:34.863Z,0.80
2022-08-21T06:31:25.206Z,0.90
2022-08-21T06:34:30.106Z,1.25
2022-08-21T06:37:05.731Z,1.10
2022-08-21T06:39:51.966Z,1.10
2022-08-21T06:42:31.001Z,1.00
2022-08-21T06:45:19.187Z,0.93
2022-08-21T06:48:03.854Z,1.10
2022-08-21T06:51:59.002Z,1.13
2022-08-21T06:55:36.269Z,1.27
2022-08-21T06:58:41.725Z,0.90
2022-08-21T07:01:19.296Z,1.10
2022-08-21T07:05:07.872Z,1.00
2022-08-21T07:09:18.690Z,1.15
2022-08-21T07:16:49.563Z,0.95
2022-08-21T07:30:58.119Z,1.02
2022-08-21T07:34:39.958Z,0.77
2022-08-21T07:44:38.803Z,1.15
2022-08-21T07:51:35.016Z,1.20
2022-08-21T07:58:41.755Z,1.30
2022-08-21T08:05:47.134Z,0.95
2022-08-21T08:23:47.695Z,1.38
2022-08-21T08:30:34.910Z,1.35
2022-08-21T08:34:25.206Z,1.55
2022-08-21T08:44:12.857Z,1.70
2022-08-21T08:51:04.009Z,1.50
2022-08-21T08:57:58.529Z,1.55
2022-08-21T09:05:31.552Z,1.63
2022-08-21T09:12:27.399Z,1.48
2022-08-21T09:23:45.328Z,1.70
2022-08-21T09:30:39.067Z,1.58
2022-08-21T09:34:16.230Z,1.88
2022-08-21T09:36:56.607Z,1.40
2022-08-21T09:43:56.362Z,1.60
2022-08-21T09:50:54.276Z,1.50
2022-08-21T09:57:46.803Z,1.70
2022-08-21T10:04:48.479Z,1.42
2022-08-21T10:11:32.733Z,1.60
2022-08-21T10:22:33.110Z,2.25
2022-08-21T10:29:50.077Z,2.05
2022-08-21T10:33:48.603Z,1.80
2022-08-21T10:41:00.790Z,1.80
2022-08-21T10:47:57.706Z,1.52
2022-08-21T10:54:55.093Z,1.30
2022-08-21T11:01:48.460Z,1.55
2022-08-21T11:08:47.733Z,1.20
2022-08-21T11:15:46.883Z,1.60
2022-08-21T11:26:58.320Z,1.42
2022-08-21T11:34:01.854Z,1.38
2022-08-21T11:41:09.211Z,1.15
2022-08-21T11:48:19.919Z,1.38
2022-08-21T11:55:23.790Z,1.15
2022-08-21T12:02:17.681Z,1.00
2022-08-21T12:09:10.280Z,1.70
2022-08-21T12:16:13.658Z,1.40
2022-08-21T12:27:31.128Z,0.98
2022-08-21T12:38:51.596Z,1.30
2022-08-21T12:45:46.690Z,1.25
2022-08-21T12:52:38.997Z,1.13
2022-08-21T12:59:48.833Z,1.23
2022-08-21T13:06:43.048Z,1.45
2022-08-21T13:13:31.650Z,1.42
2022-08-21T13:20:24.857Z,1.35
2022-08-21T13:27:32.225Z,1.35
2022-08-21T13:30:13.109Z,1.40
2022-08-21T13:34:10.356Z,1.20
2022-08-21T13:37:43.377Z,1.20
2022-08-21T13:41:29.089Z,1.10
2022-08-21T13:45:17.873Z,1.50
2022-08-21T13:47:56.125Z,1.38
2022-08-21T13:51:07.470Z,1.13
2022-08-21T13:55:04.911Z,1.23
2022-08-21T13:57:44.177Z,1.50
2022-08-21T14:01:35.258Z,1.50
2022-08-21T14:04:44.234Z,1.17
2022-08-21T14:08:14.062Z,1.23
2022-08-21T14:15:46.610Z,1.67
2022-08-21T14:23:49.379Z,1.48
2022-08-21T14:34:50.359Z,1.52
2022-08-21T14:37:28.485Z,1.50
2022-08-21T14:41:23.089Z,1.38
2022-08-21T14:48:15.108Z,1.30
2022-08-21T14:52:02.816Z,1.45
2022-08-21T14:55:53.158Z,1.52
2022-08-21T14:59:52.077Z,1.45
2022-08-21T15:03:37.632Z,1.80
2022-08-21T15:06:23.503Z,1.23
2022-08-21T15:09:35.513Z,1.80
2022-08-21T15:16:38.486Z,1.50
2022-08-21T15:20:01.418Z,1.27
2022-08-21T15:23:12.972Z,1.20
2022-08-21T15:26:39.070Z,1.50
2022-08-21T15:29:22.959Z,1.50
2022-08-21T15:32:06.505Z,1.23
2022-08-21T15:43:30.633Z,1.10
2022-08-21T15:46:30.782Z,1.30
2022-08-21T15:51:54.374Z,1.40
2022-08-21T15:54:44.200Z,1.13
2022-08-21T16:01:54.801Z,0.95
2022-08-21T16:08:48.449Z,1.20
2022-08-21T16:15:37.323Z,1.10
2022-08-21T16:22:20.201Z,1.08
2022-08-21T16:29:09.152Z,1.30
2022-08-21T16:32:55.610Z,1.00
2022-08-21T16:44:01.999Z,1.00
2022-08-21T16:50:51.148Z,0.85
2022-08-21T16:54:41.243Z,0.90
2022-08-21T17:01:49.522Z,1.00
2022-08-21T17:08:51.805Z,1.17
2022-08-21T17:11:37.206Z,1.17
2022-08-21T17:14:19.348Z,1.08
2022-08-21T17:21:38.237Z,1.00
2022-08-21T17:28:36.899Z,1.33
2022-08-21T17:36:08.885Z,1.10
2022-08-21T17:42:54.521Z,1.30
2022-08-21T17:50:01.743Z,1.17
2022-08-21T17:56:49.520Z,0.85
2022-08-21T18:09:08.874Z,1.10
2022-08-21T18:12:57.012Z,1.23
2022-08-21T18:24:32.897Z,1.10
2022-08-21T18:28:27.006Z,1.30
2022-08-21T18:35:21.776Z,1.20
2022-08-21T18:42:15.222Z,1.23
2022-08-21T18:46:04.307Z,1.00
2022-08-21T18:48:47.770Z,1.02
2022-08-21T18:59:57.860Z,0.90
2022-08-21T19:07:03.662Z,0.90
2022-08-21T19:14:46.215Z,1.08
2022-08-21T19:17:58.517Z,0.97
2022-08-21T19:41:35.195Z,0.90
2022-08-21T19:49:11.230Z,0.70
2022-08-21T19:52:20.496Z,0.90
2022-08-21T20:00:03.012Z,0.90
2022-08-21T20:03:01.295Z,0.90
2022-08-21T20:14:10.003Z,1.10
2022-08-21T20:22:19.025Z,0.88
2022-08-21T20:29:56.404Z,1.20
2022-08-21T20:33:43.714Z,1.20
2022-08-21T20:40:54.021Z,1.05
2022-08-21T20:44:03.235Z,1.40
2022-08-21T20:46:40.932Z,1.30
2022-08-21T20:50:14.170Z,1.30
2022-08-21T20:52:53.586Z,0.88
2022-08-21T20:55:57.286Z,0.82
2022-08-21T20:58:42.398Z,1.25
2022-08-21T21:01:21.502Z,1.02
2022-08-21T21:04:36.066Z,0.90
2022-08-21T21:07:53.122Z,0.75
2022-08-21T21:10:37.168Z,1.48
2022-08-21T21:13:19.691Z,0.90
2022-08-21T21:16:00.746Z,1.02
2022-08-21T21:18:42.189Z,0.90
2022-08-21T21:21:38.332Z,1.00
2022-08-21T21:24:20.738Z,1.13
2022-08-21T21:27:12.069Z,1.23
2022-08-21T21:30:04.705Z,1.00
2022-08-21T21:32:40.131Z,0.90
2022-08-21T21:38:56.952Z,1.00
2022-08-21T21:42:03.979Z,1.00
2022-08-21T21:45:17.021Z,1.00
2022-08-21T21:48:08.074Z,1.23
2022-08-21T21:55:09.890Z,1.10
2022-08-21T21:58:05.410Z,1.00
2022-08-21T22:00:53.970Z,0.90
2022-08-21T22:03:38.707Z,1.23
2022-08-21T22:06:19.701Z,0.93
2022-08-21T22:09:05.153Z,1.10
2022-08-21T22:12:30.787Z,1.53
2022-08-21T22:15:14.248Z,1.30
2022-08-21T22:18:34.809Z,1.13
2022-08-21T22:21:16.941Z,1.35
2022-08-21T22:24:17.073Z,1.30
2022-08-21T22:27:09.013Z,1.30
2022-08-21T22:29:50.561Z,1.02
2022-08-21T22:32:50.643Z,1.35
2022-08-21T22:35:59.195Z,1.35
2022-08-21T22:38:39.450Z,1.50
2022-08-21T22:44:31.501Z,1.15
2022-08-21T22:47:34.951Z,1.15
2022-08-21T22:50:24.156Z,1.23
2022-08-21T22:54:21.647Z,1.25
2022-08-21T22:57:24.978Z,1.00
2022-08-21T23:00:11.067Z,0.90
2022-08-21T23:03:02.924Z,0.85
2022-08-21T23:05:44.359Z,1.02
2022-08-21T23:08:35.920Z,1.10
2022-08-21T23:11:19.994Z,1.33
2022-08-21T23:13:56.911Z,1.00
2022-08-21T23:16:59.344Z,0.90
2022-08-21T23:20:10.393Z,1.25
2022-08-21T23:23:03.843Z,1.20
2022-08-21T23:26:07.791Z,0.98
2022-08-21T23:29:24.839Z,0.90
2022-08-21T23:32:17.099Z,1.25
2022-08-21T23:35:19.738Z,1.00
2022-08-21T23:38:24.085Z,0.90
2022-08-21T23:41:12.507Z,0.82
2022-08-21T23:44:01.558Z,1.00
2022-08-21T23:47:02.077Z,1.77
2022-08-21T23:49:49.680Z,1.08
2022-08-21T23:52:53.474Z,0.98
2022-08-21T23:56:02.577Z,1.17
2022-08-21T23:58:47.839Z,1.35
